createdAt,value
2023-07-25T00:01:17.121Z,3.45
2023-07-25T00:03:44.991Z,5.70
2023-07-25T00:06:12.819Z,7.32
2023-07-25T00:08:40.654Z,6.45
2023-07-25T00:11:14.358Z,2.72
2023-07-25T00:13:42.288Z,5.43
2023-07-25T00:16:11.507Z,5.75
2023-07-25T00:18:39.278Z,5.88
2023-07-25T00:21:07.081Z,6.32
2023-07-25T00:23:34.888Z,8.82
2023-07-25T00:26:02.701Z,5.60
2023-07-25T00:28:30.557Z,4.80
2023-07-25T00:30:58.371Z,6.13
2023-07-25T00:33:27.536Z,4.63
2023-07-25T00:35:55.538Z,7.55
2023-07-25T00:38:23.284Z,7.65
2023-07-25T00:40:51.072Z,5.38
2023-07-25T00:43:18.881Z,6.15
2023-07-25T00:45:46.804Z,6.90
2023-07-25T00:48:15.086Z,4.65
2023-07-25T00:50:45.317Z,7.25
2023-07-25T00:53:15.163Z,8.00
2023-07-25T00:55:43.213Z,6.05
2023-07-25T00:58:11.081Z,6.32
2023-07-25T01:00:40.500Z,6.40
2023-07-25T01:03:08.876Z,6.00
2023-07-25T01:05:40.971Z,7.22
2023-07-25T01:08:10.184Z,6.68
2023-07-25T01:10:39.755Z,6.88
2023-07-25T01:13:07.731Z,5.20
2023-07-25T01:15:37.392Z,6.95
2023-07-25T01:18:06.131Z,4.55
2023-07-25T01:20:36.274Z,5.97
2023-07-25T01:23:06.934Z,5.78
2023-07-25T01:25:36.104Z,5.05
2023-07-25T01:28:04.022Z,8.07
2023-07-25T01:30:31.963Z,7.60
2023-07-25T01:32:59.875Z,10.45
2023-07-25T01:35:27.667Z,6.90
2023-07-25T01:37:55.457Z,8.32
2023-07-25T01:40:23.369Z,7.15
2023-07-25T01:42:52.524Z,5.63
2023-07-25T01:45:20.412Z,3.63
2023-07-25T01:47:48.209Z,10.15
2023-07-25T01:50:16.032Z,6.07
2023-07-25T01:52:43.820Z,6.05
2023-07-25T01:55:12.000Z,6.20
2023-07-25T01:57:39.787Z,5.50
2023-07-25T02:00:10.208Z,5.40
2023-07-25T02:02:38.044Z,6.95
2023-07-25T02:05:06.502Z,8.93
2023-07-25T02:07:34.492Z,4.45
2023-07-25T02:10:02.356Z,7.68
2023-07-25T02:12:31.530Z,4.72
2023-07-25T02:14:59.322Z,7.25
2023-07-25T02:17:28.490Z,6.03
2023-07-25T02:19:56.243Z,11.10
2023-07-25T02:22:24.041Z,6.53
2023-07-25T02:24:51.989Z,10.35
2023-07-25T02:27:19.767Z,6.80
2023-07-25T02:29:47.632Z,5.03
2023-07-25T02:32:15.383Z,5.72
2023-07-25T02:34:44.469Z,9.02
2023-07-25T02:37:12.306Z,6.55
2023-07-25T02:39:40.495Z,5.72
2023-07-25T02:42:08.536Z,13.25
2023-07-25T02:44:36.318Z,6.97
2023-07-25T02:47:04.421Z,8.82
2023-07-25T02:49:32.210Z,5.90
2023-07-25T02:52:01.317Z,5.25
2023-07-25T02:54:29.033Z,6.03
2023-07-25T02:56:56.805Z,6.57
2023-07-25T02:59:24.583Z,8.30
2023-07-25T03:01:52.407Z,2.05
2023-07-25T03:04:20.154Z,5.40
2023-07-25T03:06:48.005Z,4.57
2023-07-25T03:09:17.113Z,11.65
2023-07-25T03:11:44.942Z,6.38
2023-07-25T03:14:12.689Z,9.48
2023-07-25T03:16:40.519Z,8.77
2023-07-25T03:19:08.260Z,4.72
2023-07-25T03:21:36.004Z,6.07
2023-07-25T03:24:03.809Z,5.05
2023-07-25T03:26:33.146Z,8.60
2023-07-25T03:29:00.933Z,5.88
2023-07-25T03:31:28.852Z,5.65
2023-07-25T03:33:56.820Z,4.95
2023-07-25T03:36:25.440Z,8.23
2023-07-25T03:38:53.415Z,4.93
2023-07-25T03:41:21.145Z,6.35
2023-07-25T03:43:50.274Z,7.25
2023-07-25T03:46:18.021Z,12.90
2023-07-25T03:48:45.854Z,5.43
2023-07-25T03:51:13.610Z,6.00
2023-07-25T03:53:41.348Z,8.40
2023-07-25T03:56:09.116Z,7.57
2023-07-25T03:58:36.864Z,6.95
2023-07-25T04:01:05.992Z,7.25
2023-07-25T04:03:33.871Z,6.55
2023-07-25T04:06:01.839Z,9.43
2023-07-25T04:08:29.582Z,9.13
2023-07-25T04:10:57.335Z,9.52
2023-07-25T04:13:25.110Z,7.32
2023-07-25T04:15:52.944Z,8.77
2023-07-25T04:18:22.135Z,5.82
2023-07-25T04:20:49.865Z,8.43
2023-07-25T04:23:17.784Z,8.23
2023-07-25T04:25:45.574Z,8.50
2023-07-25T04:28:13.654Z,4.95
2023-07-25T04:30:41.441Z,3.85
2023-07-25T04:33:09.212Z,4.07
2023-07-25T04:35:38.338Z,5.20
2023-07-25T04:38:06.082Z,9.73
2023-07-25T04:40:33.859Z,8.20
2023-07-25T04:43:01.632Z,6.43
2023-07-25T04:45:29.442Z,6.90
2023-07-25T04:47:57.273Z,6.53
2023-07-25T04:50:25.032Z,8.27
2023-07-25T04:52:54.164Z,7.45
2023-07-25T04:55:21.914Z,4.90
2023-07-25T04:57:51.222Z,5.35
2023-07-25T05:00:19.334Z,7.00
2023-07-25T05:02:47.247Z,5.68
2023-07-25T05:05:15.139Z,10.75
2023-07-25T05:07:42.978Z,11.68
2023-07-25T05:10:12.832Z,9.93
2023-07-25T05:12:40.616Z,7.70
2023-07-25T05:15:09.298Z,6.78
2023-07-25T05:17:37.059Z,4.57
2023-07-25T05:20:05.582Z,10.77
2023-07-25T05:22:33.325Z,7.22
2023-07-25T05:25:01.120Z,10.57
2023-07-25T05:27:30.215Z,9.02
2023-07-25T05:29:58.032Z,8.07
2023-07-25T05:32:25.867Z,7.85
2023-07-25T05:34:53.649Z,8.95
2023-07-25T05:37:21.492Z,9.18
2023-07-25T05:39:52.111Z,5.78
2023-07-25T05:42:19.881Z,9.20
2023-07-25T05:44:49.084Z,8.23
2023-07-25T05:47:16.865Z,6.65
2023-07-25T05:49:44.658Z,7.15
2023-07-25T05:52:12.389Z,8.15
2023-07-25T05:54:40.207Z,3.97
2023-07-25T05:57:08.849Z,4.28
2023-07-25T05:59:36.637Z,10.02
2023-07-25T06:02:06.302Z,8.32
2023-07-25T06:04:34.071Z,6.38
2023-07-25T06:07:01.885Z,8.57
2023-07-25T06:09:29.716Z,9.85
2023-07-25T06:11:57.734Z,10.02
2023-07-25T06:14:25.603Z,5.93
2023-07-25T06:16:53.405Z,8.80
2023-07-25T06:19:22.879Z,5.75
2023-07-25T06:21:50.875Z,8.95
2023-07-25T06:24:18.907Z,7.65
2023-07-25T06:26:46.707Z,11.85
2023-07-25T06:29:14.497Z,7.50
2023-07-25T06:31:42.703Z,11.23
2023-07-25T06:34:10.553Z,10.77
2023-07-25T06:36:39.660Z,5.65
2023-07-25T06:39:07.389Z,7.90
2023-07-25T06:41:35.239Z,11.15
2023-07-25T06:44:03.063Z,7.55
2023-07-25T06:46:30.897Z,6.85
2023-07-25T06:48:58.940Z,5.97
2023-07-25T06:51:26.822Z,7.10
2023-07-25T06:53:55.954Z,7.68
2023-07-25T06:56:23.682Z,5.80
2023-07-25T06:58:51.426Z,6.03
2023-07-25T07:01:19.250Z,12.98
2023-07-25T07:03:46.983Z,9.55
2023-07-25T07:06:14.731Z,8.10
2023-07-25T07:08:42.469Z,13.07
2023-07-25T07:11:11.581Z,7.72
2023-07-25T07:13:39.380Z,9.93
2023-07-25T07:16:07.169Z,6.65
2023-07-25T07:18:35.027Z,4.60
2023-07-25T07:21:02.786Z,7.82
2023-07-25T07:23:30.567Z,6.07
2023-07-25T07:25:58.322Z,7.85
2023-07-25T07:28:27.447Z,14.20
2023-07-25T07:30:56.440Z,5.55
2023-07-25T07:33:26.519Z,7.13
2023-07-25T07:35:54.352Z,13.82
2023-07-25T07:38:22.205Z,7.07
2023-07-25T07:40:50.066Z,7.18
2023-07-25T07:43:17.903Z,6.13
2023-07-25T07:45:47.030Z,9.88
2023-07-25T07:48:14.775Z,5.40
2023-07-25T07:50:42.523Z,5.60
2023-07-25T07:53:10.318Z,7.43
2023-07-25T07:55:38.141Z,7.43
2023-07-25T07:58:06.111Z,6.82
2023-07-25T08:00:34.266Z,7.22
2023-07-25T08:03:03.408Z,9.30
2023-07-25T08:05:31.307Z,9.10
2023-07-25T08:07:59.097Z,6.47
2023-07-25T08:10:27.041Z,7.55
2023-07-25T08:12:54.812Z,6.50
2023-07-25T08:15:22.599Z,6.18
2023-07-25T08:17:50.493Z,7.25
2023-07-25T08:20:19.760Z,7.68
2023-07-25T08:22:49.144Z,6.82
2023-07-25T08:25:17.100Z,4.63
2023-07-25T08:27:44.885Z,12.82
2023-07-25T08:30:13.285Z,5.10
2023-07-25T08:32:41.241Z,6.10
2023-07-25T08:35:09.656Z,4.93
2023-07-25T08:37:38.830Z,5.65
2023-07-25T08:40:08.322Z,4.78
2023-07-25T08:42:37.404Z,8.48
2023-07-25T08:45:08.280Z,6.38
2023-07-25T08:47:41.282Z,5.85
2023-07-25T08:50:13.871Z,5.63
2023-07-25T08:52:48.020Z,6.35
2023-07-25T08:55:16.010Z,8.73
2023-07-25T08:57:45.145Z,7.07
2023-07-25T09:00:15.095Z,8.25
2023-07-25T09:02:43.076Z,7.75
2023-07-25T09:05:12.058Z,5.50
2023-07-25T09:07:41.174Z,6.20
2023-07-25T09:10:12.241Z,7.13
2023-07-25T09:12:40.155Z,8.30
2023-07-25T09:15:08.730Z,6.90
2023-07-25T09:17:37.031Z,4.30
2023-07-25T09:20:06.862Z,7.90
2023-07-25T09:22:35.500Z,4.78
2023-07-25T09:25:10.880Z,5.78
2023-07-25T09:27:38.624Z,5.15
2023-07-25T09:30:12.941Z,4.82
2023-07-25T09:32:41.107Z,4.50
2023-07-25T09:35:10.881Z,6.82
2023-07-25T09:37:38.656Z,3.90
2023-07-25T09:40:11.939Z,3.63
2023-07-25T09:42:42.433Z,6.50
2023-07-25T09:45:11.236Z,4.38
2023-07-25T09:47:39.509Z,6.13
2023-07-25T09:50:08.562Z,4.72
2023-07-25T09:52:43.837Z,3.13
2023-07-25T09:55:12.971Z,4.25
2023-07-25T09:57:41.211Z,5.30
2023-07-25T10:00:10.680Z,4.90
2023-07-25T10:02:39.407Z,3.00
2023-07-25T10:05:09.352Z,3.97
2023-07-25T10:07:37.570Z,6.85
2023-07-25T10:10:06.194Z,3.55
2023-07-25T10:12:35.300Z,5.40
2023-07-25T10:15:03.372Z,5.20
2023-07-25T10:17:31.134Z,4.07
2023-07-25T10:19:59.264Z,3.97
2023-07-25T10:22:37.996Z,7.35
2023-07-25T10:25:11.200Z,5.05
2023-07-25T10:27:40.440Z,3.78
2023-07-25T10:30:23.893Z,4.80
2023-07-25T10:32:53.737Z,5.32
2023-07-25T10:35:43.381Z,9.20
2023-07-25T10:38:12.666Z,5.75
2023-07-25T10:40:57.612Z,5.00
2023-07-25T10:43:30.866Z,4.72
2023-07-25T10:46:02.251Z,4.25
2023-07-25T10:48:37.470Z,7.97
2023-07-25T10:51:09.429Z,5.72
2023-07-25T10:53:37.808Z,7.03
2023-07-25T10:56:16.761Z,8.75
2023-07-25T10:59:09.612Z,5.35
2023-07-25T11:01:49.255Z,7.20
2023-07-25T11:04:28.766Z,3.67
2023-07-25T11:06:58.347Z,4.65
2023-07-25T11:09:27.391Z,3.65
2023-07-25T11:11:56.371Z,7.45
2023-07-25T11:14:25.549Z,2.50
2023-07-25T11:16:54.897Z,6.45
2023-07-25T11:19:29.654Z,5.78
2023-07-25T11:21:57.589Z,5.68
2023-07-25T11:24:25.464Z,5.57
2023-07-25T11:26:53.296Z,3.15
2023-07-25T11:29:21.033Z,4.45
2023-07-25T11:31:51.172Z,7.10
2023-07-25T11:34:20.561Z,6.65
2023-07-25T11:36:48.994Z,6.25
2023-07-25T11:39:18.050Z,5.68
2023-07-25T11:41:46.820Z,5.22
2023-07-25T11:44:16.372Z,4.90
2023-07-25T11:46:46.539Z,4.70
2023-07-25T11:49:24.971Z,5.07
2023-07-25T11:52:04.706Z,3.88
2023-07-25T11:54:33.796Z,5.38
2023-07-25T11:57:02.196Z,4.35
2023-07-25T11:59:30.007Z,5.38
2023-07-25T12:02:07.058Z,4.10
2023-07-25T12:04:43.843Z,4.38
2023-07-25T12:07:11.741Z,3.53
2023-07-25T12:09:41.009Z,5.78
2023-07-25T12:12:13.710Z,3.03
2023-07-25T12:14:42.366Z,4.28
2023-07-25T12:17:10.253Z,5.18
2023-07-25T12:19:39.424Z,3.78
2023-07-25T12:22:09.196Z,2.88
2023-07-25T12:24:43.189Z,4.53
2023-07-25T12:27:17.795Z,4.05
2023-07-25T12:29:45.913Z,3.20
2023-07-25T12:32:14.111Z,6.18
2023-07-25T12:34:43.323Z,5.00
2023-07-25T12:37:11.117Z,3.95
2023-07-25T12:39:41.568Z,4.18
2023-07-25T12:42:09.462Z,3.53
2023-07-25T12:44:37.324Z,3.53
2023-07-25T12:47:05.797Z,3.20
2023-07-25T12:49:34.717Z,5.10
2023-07-25T12:52:03.902Z,5.07
2023-07-25T12:54:31.722Z,4.03
2023-07-25T12:56:59.487Z,1.52
2023-07-25T12:59:27.318Z,5.20
2023-07-25T13:01:55.477Z,4.47
2023-07-25T13:04:23.486Z,2.83
2023-07-25T13:06:51.616Z,4.40
2023-07-25T13:09:20.844Z,7.32
2023-07-25T13:11:48.689Z,2.75
2023-07-25T13:14:16.571Z,1.45
2023-07-25T13:16:44.598Z,3.35
2023-07-25T13:19:13.616Z,3.00
2023-07-25T13:21:41.445Z,4.55
2023-07-25T13:24:09.325Z,7.15
2023-07-25T13:26:38.982Z,3.63
2023-07-25T13:29:06.864Z,3.22
2023-07-25T13:31:34.954Z,6.60
2023-07-25T13:34:02.863Z,4.43
2023-07-25T13:36:30.734Z,3.25
2023-07-25T13:38:58.534Z,3.78
2023-07-25T13:41:26.380Z,1.60
2023-07-25T13:43:55.492Z,2.05
2023-07-25T13:46:23.317Z,3.03
2023-07-25T13:48:52.148Z,1.63
2023-07-25T13:51:20.063Z,2.72
2023-07-25T13:53:47.922Z,3.42
2023-07-25T13:56:15.892Z,1.30
2023-07-25T13:58:43.908Z,1.92
2023-07-25T14:01:13.113Z,3.22
2023-07-25T14:03:40.925Z,2.42
2023-07-25T14:06:08.653Z,3.65
2023-07-25T14:08:36.473Z,5.72
2023-07-25T14:11:04.345Z,2.22
2023-07-25T14:13:32.759Z,5.63
2023-07-25T14:16:01.349Z,5.57
2023-07-25T14:18:30.588Z,2.28
2023-07-25T14:21:00.602Z,4.28
2023-07-25T14:23:28.526Z,4.20
2023-07-25T14:25:56.401Z,3.08
2023-07-25T14:28:24.297Z,4.47
2023-07-25T14:30:52.289Z,2.22
2023-07-25T14:33:21.764Z,1.40
2023-07-25T14:35:51.412Z,6.47
2023-07-25T14:38:19.772Z,3.25
2023-07-25T14:40:47.937Z,4.75
2023-07-25T14:43:15.736Z,4.53
2023-07-25T14:45:43.546Z,2.33
2023-07-25T14:48:11.473Z,3.53
2023-07-25T14:50:40.851Z,3.63
2023-07-25T14:53:10.291Z,1.77
2023-07-25T14:55:38.093Z,1.95
2023-07-25T14:58:05.970Z,2.28
2023-07-25T15:00:33.964Z,2.28
2023-07-25T15:03:01.952Z,3.65
2023-07-25T15:05:29.938Z,2.70
2023-07-25T15:07:57.738Z,3.72
2023-07-25T15:10:27.250Z,2.05
2023-07-25T15:12:56.305Z,4.38
2023-07-25T15:15:24.181Z,3.50
2023-07-25T15:17:52.367Z,3.42
2023-07-25T15:20:21.680Z,2.03
2023-07-25T15:22:49.703Z,3.10
2023-07-25T15:25:17.526Z,4.53
2023-07-25T15:27:46.742Z,2.22
2023-07-25T15:30:14.569Z,1.10
2023-07-25T15:32:42.472Z,1.00
2023-07-25T15:35:11.382Z,2.08
2023-07-25T15:37:39.498Z,2.72
2023-07-25T15:40:09.198Z,1.13
2023-07-25T15:42:36.958Z,0.65
2023-07-25T15:45:07.491Z,1.23
2023-07-25T15:47:35.352Z,2.25
2023-07-25T15:50:03.477Z,1.40
2023-07-25T15:52:31.389Z,2.28
2023-07-25T15:55:00.073Z,2.67
2023-07-25T15:57:27.984Z,1.90
2023-07-25T15:59:55.832Z,3.67
2023-07-25T16:02:25.151Z,5.20
2023-07-25T16:04:52.978Z,1.27
2023-07-25T16:07:20.746Z,1.23
2023-07-25T16:09:48.488Z,2.10
2023-07-25T16:12:16.915Z,3.60
2023-07-25T16:14:44.751Z,4.13
2023-07-25T16:17:12.777Z,0.80
2023-07-25T16:19:42.360Z,2.80
2023-07-25T16:22:10.224Z,1.20
2023-07-25T16:24:38.152Z,2.03
2023-07-25T16:27:06.556Z,1.55
2023-07-25T16:29:34.419Z,3.22
2023-07-25T16:32:02.380Z,3.50
2023-07-25T16:34:31.518Z,3.97
2023-07-25T16:37:00.664Z,3.42
2023-07-25T16:39:28.720Z,4.32
2023-07-25T16:41:56.836Z,5.05
2023-07-25T16:44:24.833Z,3.40
2023-07-25T16:46:52.619Z,3.38
2023-07-25T16:49:20.482Z,2.13
2023-07-25T16:51:48.383Z,2.60
2023-07-25T16:54:17.975Z,4.05
2023-07-25T16:56:45.973Z,2.47
2023-07-25T16:59:13.737Z,3.03
2023-07-25T17:01:41.545Z,2.88
2023-07-25T17:04:09.343Z,2.22
2023-07-25T17:06:37.235Z,1.35
2023-07-25T17:09:05.500Z,2.05
2023-07-25T17:11:35.723Z,3.92
2023-07-25T17:14:03.944Z,1.70
2023-07-25T17:16:31.916Z,1.80
2023-07-25T17:18:59.748Z,3.08
2023-07-25T17:21:39.411Z,4.03
2023-07-25T17:24:09.044Z,3.40
2023-07-25T17:26:38.834Z,4.50
2023-07-25T17:29:07.135Z,4.32
2023-07-25T17:31:35.602Z,3.28
2023-07-25T17:34:04.166Z,1.70
2023-07-25T17:36:32.081Z,2.20
2023-07-25T17:38:59.874Z,4.95
2023-07-25T17:41:27.701Z,1.63
2023-07-25T17:43:56.906Z,3.67
2023-07-25T17:46:24.759Z,2.05
2023-07-25T17:48:54.510Z,3.53
2023-07-25T17:51:22.457Z,1.48
2023-07-25T17:53:50.227Z,1.63
2023-07-25T17:56:18.076Z,5.05
2023-07-25T17:58:45.923Z,1.63
2023-07-25T18:01:15.274Z,5.45
2023-07-25T18:03:43.224Z,3.72
2023-07-25T18:06:11.018Z,2.85
2023-07-25T18:08:39.200Z,4.07
2023-07-25T18:11:07.263Z,2.78
2023-07-25T18:13:35.079Z,4.35
2023-07-25T18:16:02.955Z,3.28
2023-07-25T18:18:32.234Z,2.83
2023-07-25T18:21:00.006Z,4.70
2023-07-25T18:23:27.772Z,2.83
2023-07-25T18:26:01.119Z,2.15
2023-07-25T18:28:29.044Z,5.30
2023-07-25T18:30:56.853Z,3.25
2023-07-25T18:33:24.781Z,2.15
2023-07-25T18:35:53.957Z,2.78
2023-07-25T18:38:21.809Z,1.48
2023-07-25T18:40:49.678Z,2.17
2023-07-25T18:43:20.506Z,1.13
2023-07-25T18:45:48.435Z,2.13
2023-07-25T18:48:16.269Z,2.45
2023-07-25T18:50:44.700Z,2.17
2023-07-25T18:53:13.944Z,1.85
2023-07-25T18:55:42.408Z,1.35
2023-07-25T18:58:10.284Z,1.35
2023-07-25T19:00:38.170Z,2.22
2023-07-25T19:03:06.029Z,0.88
2023-07-25T19:05:34.002Z,2.78
2023-07-25T19:08:01.848Z,3.58
2023-07-25T19:10:31.185Z,3.38
2023-07-25T19:12:59.019Z,6.18
2023-07-25T19:15:27.013Z,3.60
2023-07-25T19:17:54.877Z,4.20
2023-07-25T19:20:22.655Z,3.35
2023-07-25T19:22:50.420Z,6.05
2023-07-25T19:25:18.248Z,1.40
2023-07-25T19:27:49.236Z,3.15
2023-07-25T19:30:17.291Z,2.53
2023-07-25T19:32:45.839Z,2.70
2023-07-25T19:35:13.685Z,1.23
2023-07-25T19:37:41.498Z,2.67
2023-07-25T19:40:10.679Z,2.35
2023-07-25T19:42:38.587Z,2.47
2023-07-25T19:45:08.964Z,3.20
2023-07-25T19:47:36.839Z,1.67
2023-07-25T19:50:04.933Z,2.03
2023-07-25T19:52:32.714Z,2.70
2023-07-25T19:55:00.588Z,1.02
2023-07-25T19:57:28.400Z,3.60
2023-07-25T19:59:56.158Z,2.45
2023-07-25T20:02:25.360Z,1.70
2023-07-25T20:04:53.306Z,1.70
2023-07-25T20:07:21.111Z,1.33
2023-07-25T20:09:49.177Z,2.78
2023-07-25T20:12:17.030Z,3.78
2023-07-25T20:14:44.856Z,3.75
2023-07-25T20:17:12.612Z,8.23
2023-07-25T20:19:41.767Z,3.90
2023-07-25T20:22:09.575Z,1.02
2023-07-25T20:24:37.412Z,1.35
2023-07-25T20:27:05.629Z,2.10
2023-07-25T20:29:33.546Z,1.55
2023-07-25T20:32:01.404Z,3.05
2023-07-25T20:34:29.274Z,2.70
2023-07-25T20:36:58.952Z,2.00
2023-07-25T20:39:26.784Z,1.80
2023-07-25T20:41:54.547Z,0.70
2023-07-25T20:44:22.470Z,2.25
2023-07-25T20:46:50.453Z,3.55
2023-07-25T20:49:18.309Z,2.65
2023-07-25T20:51:46.117Z,2.65
2023-07-25T20:54:15.301Z,2.92
2023-07-25T20:56:43.080Z,4.65
2023-07-25T20:59:14.776Z,1.70
2023-07-25T21:01:42.958Z,2.30
2023-07-25T21:04:10.925Z,3.50
2023-07-25T21:06:38.725Z,1.83
2023-07-25T21:09:06.510Z,1.25
2023-07-25T21:11:35.694Z,2.75
2023-07-25T21:14:03.532Z,5.53
2023-07-25T21:16:31.977Z,2.25
2023-07-25T21:19:00.082Z,2.17
2023-07-25T21:21:28.009Z,5.32
2023-07-25T21:23:55.804Z,2.22
2023-07-25T21:26:23.678Z,2.97
2023-07-25T21:28:52.807Z,3.88
2023-07-25T21:31:20.634Z,8.88
2023-07-25T21:33:48.651Z,4.05
2023-07-25T21:36:16.760Z,3.72
2023-07-25T21:38:44.711Z,3.38
2023-07-25T21:41:14.229Z,2.90
2023-07-25T21:43:42.988Z,3.90
2023-07-25T21:46:12.184Z,4.82
2023-07-25T21:48:40.011Z,5.50
2023-07-25T21:51:08.835Z,3.55
2023-07-25T21:53:36.713Z,4.97
2023-07-25T21:56:04.792Z,2.78
2023-07-25T21:58:32.648Z,4.53
2023-07-25T22:01:00.814Z,3.30
2023-07-25T22:03:30.572Z,4.65
2023-07-25T22:06:00.093Z,4.20
2023-07-25T22:08:27.938Z,6.80
2023-07-25T22:10:56.643Z,3.97
2023-07-25T22:13:24.954Z,5.15
2023-07-25T22:15:52.891Z,4.40
2023-07-25T22:18:20.652Z,4.05
2023-07-25T22:20:52.773Z,5.97
2023-07-25T22:23:21.603Z,2.70
2023-07-25T22:25:49.758Z,3.75
2023-07-25T22:28:17.603Z,5.82
2023-07-25T22:30:45.427Z,3.65
2023-07-25T22:33:13.211Z,2.92
2023-07-25T22:35:41.046Z,2.97
2023-07-25T22:38:10.198Z,3.55
2023-07-25T22:40:37.973Z,4.65
2023-07-25T22:43:06.213Z,1.90
2023-07-25T22:45:34.061Z,3.88
2023-07-25T22:48:01.961Z,3.95
2023-07-25T22:50:29.771Z,1.88
2023-07-25T22:52:57.556Z,1.63
2023-07-25T22:55:26.700Z,2.55
2023-07-25T22:57:54.860Z,1.67
2023-07-25T23:00:22.707Z,3.40
2023-07-25T23:02:52.484Z,2.50
2023-07-25T23:05:20.496Z,2.78
2023-07-25T23:07:48.327Z,1.95
2023-07-25T23:10:16.580Z,2.17
2023-07-25T23:12:45.838Z,3.22
2023-07-25T23:15:14.521Z,2.72
2023-07-25T23:17:42.386Z,2.08
2023-07-25T23:20:10.980Z,3.80
2023-07-25T23:22:38.858Z,2.47
2023-07-25T23:25:07.456Z,2.35
2023-07-25T23:27:35.273Z,3.30
2023-07-25T23:30:05.235Z,1.92
2023-07-25T23:32:33.055Z,2.13
2023-07-25T23:35:00.810Z,4.68
2023-07-25T23:37:28.602Z,4.07
2023-07-25T23:39:56.529Z,3.55
2023-07-25T23:42:24.346Z,3.63
2023-07-25T23:44:52.173Z,2.60
2023-07-25T23:47:21.340Z,3.50
2023-07-25T23:49:49.166Z,2.83
2023-07-25T23:52:16.948Z,3.10
2023-07-25T23:54:44.783Z,1.83
2023-07-25T23:57:13.203Z,4.47
2023-07-25T23:59:40.988Z,4.90
